createdAt,value
2022-09-06T00:01:08.930Z,73.40
2022-09-06T00:03:35.900Z,73.44
2022-09-06T00:06:18.197Z,73.45
2022-09-06T00:08:46.208Z,73.36
2022-09-06T00:11:14.487Z,73.64
2022-09-06T00:13:41.508Z,73.58
2022-09-06T00:16:14.518Z,73.69
2022-09-06T00:18:42.118Z,73.64
2022-09-06T00:21:23.531Z,73.52
2022-09-06T00:23:51.087Z,73.85
2022-09-06T00:26:18.098Z,73.93
2022-09-06T00:28:45.220Z,73.93
2022-09-06T00:31:14.753Z,73.74
2022-09-06T00:33:41.965Z,74.01
2022-09-06T00:36:10.069Z,74.03
2022-09-06T00:38:37.843Z,73.92
2022-09-06T00:41:06.557Z,73.98
2022-09-06T00:43:33.498Z,74.33
2022-09-06T00:46:00.695Z,74.00
2022-09-06T00:48:28.166Z,74.11
2022-09-06T00:51:00.648Z,74.33
2022-09-06T00:53:27.883Z,74.23
2022-09-06T00:55:55.167Z,74.65
2022-09-06T00:58:22.282Z,74.60
2022-09-06T01:00:49.206Z,74.63
2022-09-06T01:03:16.318Z,74.25
2022-09-06T01:06:09.455Z,74.46
2022-09-06T01:08:58.607Z,74.32
2022-09-06T01:11:40.108Z,74.51
2022-09-06T01:14:25.567Z,74.41
2022-09-06T01:17:08.155Z,74.55
2022-09-06T01:19:54.250Z,74.34
2022-09-06T01:22:45.999Z,74.35
2022-09-06T01:25:28.174Z,74.36
2022-09-06T01:28:22.758Z,74.39
2022-09-06T01:31:00.916Z,74.39
2022-09-06T01:33:51.028Z,74.40
2022-09-06T01:36:21.334Z,74.38
2022-09-06T01:38:49.028Z,74.38
2022-09-06T01:41:15.958Z,74.28
2022-09-06T01:43:46.369Z,74.44
2022-09-06T01:46:20.611Z,74.82
2022-09-06T01:49:17.009Z,74.54
2022-09-06T01:52:02.739Z,74.78
2022-09-06T01:54:48.507Z,74.82
2022-09-06T01:57:34.158Z,74.17
2022-09-06T02:00:09.285Z,74.69
2022-09-06T02:03:16.772Z,74.89
2022-09-06T02:05:47.820Z,75.11
2022-09-06T02:08:22.844Z,75.25
2022-09-06T02:11:02.277Z,74.91
2022-09-06T02:13:33.873Z,75.52
2022-09-06T02:16:06.577Z,75.35
2022-09-06T02:18:43.269Z,75.58
2022-09-06T02:21:13.514Z,75.42
2022-09-06T02:23:43.147Z,75.68
2022-09-06T02:26:14.533Z,75.60
2022-09-06T02:28:41.633Z,75.28
2022-09-06T02:31:25.946Z,75.55
2022-09-06T02:33:53.352Z,75.91
2022-09-06T02:36:21.206Z,75.76
2022-09-06T02:38:48.487Z,75.95
2022-09-06T02:41:18.696Z,76.05
2022-09-06T02:43:45.799Z,75.90
2022-09-06T02:46:12.776Z,76.10
2022-09-06T02:48:39.787Z,75.88
2022-09-06T02:51:08.570Z,75.60
2022-09-06T02:53:36.111Z,75.82
2022-09-06T02:56:03.347Z,75.75
2022-09-06T02:58:30.582Z,75.88
2022-09-06T03:00:57.774Z,76.15
2022-09-06T03:03:25.096Z,76.18
2022-09-06T03:05:53.510Z,76.31
2022-09-06T03:08:22.537Z,76.14
2022-09-06T03:10:54.258Z,76.36
2022-09-06T03:13:21.801Z,76.68
2022-09-06T03:15:57.028Z,75.83
2022-09-06T03:18:25.767Z,76.76
2022-09-06T03:20:53.789Z,76.96
2022-09-06T03:23:23.717Z,76.59
2022-09-06T03:25:50.829Z,76.47
2022-09-06T03:28:18.661Z,76.81
2022-09-06T03:30:47.326Z,76.95
2022-09-06T03:33:14.631Z,76.19
2022-09-06T03:35:51.507Z,76.74
2022-09-06T03:38:18.544Z,76.83
2022-09-06T03:40:47.002Z,76.85
2022-09-06T03:43:14.537Z,76.22
2022-09-06T03:45:46.053Z,76.62
2022-09-06T03:48:13.072Z,76.30
2022-09-06T03:50:44.615Z,76.57
2022-09-06T03:53:11.806Z,76.64
2022-09-06T03:55:38.971Z,76.80
2022-09-06T03:58:06.015Z,76.77
2022-09-06T04:00:33.698Z,76.73
2022-09-06T04:03:01.859Z,77.31
2022-09-06T04:05:29.028Z,76.97
2022-09-06T04:07:55.936Z,76.69
2022-09-06T04:10:22.966Z,77.06
2022-09-06T04:12:49.879Z,76.77
2022-09-06T04:15:16.973Z,76.89
2022-09-06T04:17:45.934Z,76.34
2022-09-06T04:20:13.645Z,76.59
2022-09-06T04:22:40.935Z,76.49
2022-09-06T04:25:08.750Z,76.48
2022-09-06T04:27:35.778Z,76.35
2022-09-06T04:30:02.688Z,76.34
2022-09-06T04:32:29.790Z,76.51
2022-09-06T04:34:56.669Z,76.55
2022-09-06T04:37:23.776Z,76.77
2022-09-06T04:39:50.759Z,75.96
2022-09-06T04:42:17.717Z,75.99
2022-09-06T04:44:44.801Z,76.13
2022-09-06T04:47:14.949Z,75.92
2022-09-06T04:49:42.558Z,76.03
2022-09-06T04:52:10.275Z,76.50
2022-09-06T04:54:38.707Z,76.36
2022-09-06T04:57:05.859Z,76.53
2022-09-06T04:59:33.346Z,76.02
2022-09-06T05:02:00.334Z,76.24
2022-09-06T05:04:27.300Z,76.13
2022-09-06T05:07:05.073Z,76.45
2022-09-06T05:09:33.025Z,76.09
2022-09-06T05:12:00.515Z,75.99
2022-09-06T05:14:28.238Z,76.15
2022-09-06T05:16:55.564Z,76.00
2022-09-06T05:19:22.975Z,76.21
2022-09-06T05:21:51.649Z,76.26
2022-09-06T05:24:19.173Z,76.29
2022-09-06T05:26:46.157Z,76.18
2022-09-06T05:29:13.256Z,75.96
2022-09-06T05:31:40.215Z,76.11
2022-09-06T05:34:07.246Z,76.07
2022-09-06T05:36:34.499Z,76.19
2022-09-06T05:39:01.625Z,76.01
2022-09-06T05:41:28.655Z,75.92
2022-09-06T05:43:55.776Z,75.81
2022-09-06T05:46:22.755Z,75.94
2022-09-06T05:48:58.192Z,75.76
2022-09-06T05:51:25.239Z,75.75
2022-09-06T05:53:52.227Z,75.58
2022-09-06T05:56:19.325Z,75.70
2022-09-06T05:58:46.362Z,75.57
2022-09-06T06:01:17.691Z,75.39
2022-09-06T06:03:59.083Z,75.53
2022-09-06T06:06:28.661Z,75.54
2022-09-06T06:08:56.425Z,75.27
2022-09-06T06:11:24.315Z,75.24
2022-09-06T06:13:51.815Z,75.12
2022-09-06T06:16:20.513Z,75.20
2022-09-06T06:18:51.919Z,75.14
2022-09-06T06:21:23.916Z,74.88
2022-09-06T06:23:56.184Z,75.06
2022-09-06T06:26:23.815Z,74.78
2022-09-06T06:28:51.667Z,74.50
2022-09-06T06:31:19.565Z,74.23
2022-09-06T06:33:46.595Z,74.10
2022-09-06T06:36:13.498Z,73.96
2022-09-06T06:38:44.846Z,73.60
2022-09-06T06:41:14.015Z,73.22
2022-09-06T06:43:41.218Z,72.70
2022-09-06T06:46:15.701Z,72.24
2022-09-06T06:48:44.051Z,71.91
2022-09-06T06:51:13.228Z,71.80
2022-09-06T06:53:40.543Z,71.35
2022-09-06T06:56:16.246Z,70.93
2022-09-06T06:58:43.676Z,70.73
2022-09-06T07:01:11.076Z,70.42
2022-09-06T07:03:38.397Z,70.10
2022-09-06T07:06:13.317Z,69.59
2022-09-06T07:08:41.035Z,69.26
2022-09-06T07:11:10.126Z,68.58
2022-09-06T07:13:37.488Z,67.85
2022-09-06T07:16:12.090Z,67.69
2022-09-06T07:18:42.288Z,67.05
2022-09-06T07:24:09.059Z,66.28
2022-09-06T07:26:38.517Z,65.83
2022-09-06T07:29:06.547Z,65.27
2022-09-06T07:34:22.320Z,64.37
2022-09-06T07:36:53.328Z,64.27
2022-09-06T07:39:20.546Z,63.97
2022-09-06T07:41:47.666Z,63.58
2022-09-06T07:44:15.534Z,63.33
2022-09-06T07:46:42.785Z,62.78
2022-09-06T07:49:09.818Z,62.25
2022-09-06T07:51:36.926Z,62.20
2022-09-06T07:54:29.253Z,62.07
2022-09-06T07:56:51.656Z,61.84
2022-09-06T07:59:18.705Z,61.47
2022-09-06T08:01:47.586Z,61.21
2022-09-06T08:04:14.945Z,60.98
2022-09-06T08:09:35.695Z,60.01
2022-09-06T08:12:07.101Z,59.72
2022-09-06T08:14:34.995Z,59.37
2022-09-06T08:17:04.957Z,59.04
2022-09-06T08:19:32.630Z,58.51
2022-09-06T08:21:59.720Z,58.27
2022-09-06T08:24:26.699Z,57.87
2022-09-06T08:26:53.950Z,57.50
2022-09-06T08:29:21.110Z,57.31
2022-09-06T08:31:48.391Z,56.96
2022-09-06T08:34:16.047Z,56.62
2022-09-06T08:36:44.207Z,56.10
2022-09-06T08:39:11.652Z,55.83
2022-09-06T08:41:47.698Z,55.68
2022-09-06T08:47:12.786Z,55.11
2022-09-06T08:50:07.418Z,55.04
2022-09-06T08:52:45.086Z,54.59
2022-09-06T08:55:57.096Z,54.30
2022-09-06T08:58:30.042Z,53.96
2022-09-06T09:01:02.463Z,53.72
2022-09-06T09:03:36.866Z,53.51
2022-09-06T09:06:07.146Z,53.25
2022-09-06T09:08:44.437Z,52.82
2022-09-06T09:11:15.827Z,52.46
2022-09-06T09:13:59.392Z,52.42
2022-09-06T09:16:26.637Z,52.17
2022-09-06T09:18:56.616Z,51.86
2022-09-06T09:21:30.472Z,51.90
2022-09-06T09:24:02.413Z,51.71
2022-09-06T09:26:36.940Z,51.62
2022-09-06T09:29:05.020Z,51.45
2022-09-06T09:31:43.029Z,51.28
2022-09-06T09:34:15.135Z,50.93
2022-09-06T09:39:35.841Z,50.36
2022-09-06T09:42:03.837Z,50.38
2022-09-06T09:44:30.935Z,50.05
2022-09-06T09:46:57.994Z,50.02
2022-09-06T09:49:25.380Z,49.96
2022-09-06T09:52:11.975Z,49.39
2022-09-06T09:54:41.527Z,49.36
2022-09-06T09:57:15.117Z,49.08
2022-09-06T09:59:51.484Z,48.76
2022-09-06T10:02:19.776Z,48.84
2022-09-06T10:04:54.445Z,48.66
2022-09-06T10:07:23.206Z,48.45
2022-09-06T10:10:01.443Z,48.47
2022-09-06T10:12:38.907Z,48.29
2022-09-06T10:15:07.786Z,47.96
2022-09-06T10:17:38.590Z,47.63
2022-09-06T10:20:09.666Z,47.49
2022-09-06T10:23:14.072Z,47.25
2022-09-06T10:25:51.335Z,47.05
2022-09-06T10:28:36.514Z,47.02
2022-09-06T10:31:25.374Z,46.71
2022-09-06T10:34:01.226Z,46.51
2022-09-06T10:36:37.481Z,46.01
2022-09-06T10:39:26.226Z,45.85
2022-09-06T10:41:55.996Z,45.87
2022-09-06T10:45:03.669Z,45.97
2022-09-06T10:47:47.036Z,45.87
2022-09-06T10:50:14.564Z,45.71
2022-09-06T10:52:44.419Z,45.66
2022-09-06T10:55:16.156Z,45.62
2022-09-06T11:00:46.866Z,45.30
2022-09-06T11:06:21.211Z,45.04
2022-09-06T11:08:58.421Z,45.05
2022-09-06T11:11:59.525Z,45.08
2022-09-06T11:14:28.876Z,44.97
2022-09-06T11:17:34.805Z,44.90
2022-09-06T11:20:08.967Z,44.85
2022-09-06T11:22:41.623Z,44.76
2022-09-06T11:25:32.049Z,44.64
2022-09-06T11:28:00.748Z,44.76
2022-09-06T11:30:29.881Z,44.62
2022-09-06T11:33:25.992Z,44.46
2022-09-06T11:35:54.107Z,44.75
2022-09-06T11:38:25.275Z,44.62
2022-09-06T11:41:02.054Z,44.47
2022-09-06T11:43:49.016Z,44.48
2022-09-06T11:46:48.597Z,44.46
2022-09-06T11:49:15.696Z,44.34
2022-09-06T11:51:44.404Z,44.29
2022-09-06T11:54:23.362Z,44.35
2022-09-06T11:57:08.895Z,44.35
2022-09-06T11:59:39.059Z,44.23
2022-09-06T12:02:08.335Z,44.21
2022-09-06T12:05:01.028Z,44.12
2022-09-06T12:07:29.115Z,43.89
2022-09-06T12:09:56.196Z,43.88
2022-09-06T12:12:43.394Z,43.58
2022-09-06T12:15:40.568Z,43.31
2022-09-06T12:18:07.635Z,43.13
2022-09-06T12:20:51.278Z,42.99
2022-09-06T12:23:36.491Z,42.92
2022-09-06T12:26:05.673Z,42.75
2022-09-06T12:28:53.955Z,42.73
2022-09-06T12:31:33.382Z,42.89
2022-09-06T12:34:20.036Z,42.70
2022-09-06T12:36:51.555Z,42.81
2022-09-06T12:39:21.375Z,42.67
2022-09-06T12:41:50.895Z,42.73
2022-09-06T12:44:28.034Z,42.53
2022-09-06T12:46:55.025Z,42.60
2022-09-06T12:49:23.542Z,42.51
2022-09-06T12:51:50.515Z,42.51
2022-09-06T12:54:24.106Z,42.53
2022-09-06T12:56:51.615Z,42.52
2022-09-06T12:59:25.182Z,42.49
2022-09-06T13:02:21.104Z,42.60
2022-09-06T13:04:53.285Z,42.43
2022-09-06T13:07:22.799Z,42.36
2022-09-06T13:09:52.103Z,42.30
2022-09-06T13:12:35.704Z,42.32
2022-09-06T13:15:25.320Z,42.37
2022-09-06T13:17:53.909Z,42.45
2022-09-06T13:20:32.986Z,42.32
2022-09-06T13:23:11.566Z,42.20
2022-09-06T13:25:53.254Z,42.23
2022-09-06T13:28:29.233Z,42.38
2022-09-06T13:31:18.134Z,42.20
2022-09-06T13:33:46.545Z,42.44
2022-09-06T13:36:14.046Z,42.37
2022-09-06T13:38:43.093Z,42.28
2022-09-06T13:41:30.287Z,42.32
2022-09-06T13:44:26.526Z,42.30
2022-09-06T13:46:55.229Z,42.37
2022-09-06T13:49:25.841Z,42.49
2022-09-06T13:51:54.066Z,42.53
2022-09-06T13:54:22.966Z,42.63
2022-09-06T13:56:50.838Z,42.84
2022-09-06T13:59:18.235Z,42.81
2022-09-06T14:01:47.473Z,42.97
2022-09-06T14:04:16.415Z,42.94
2022-09-06T14:06:44.335Z,43.09
2022-09-06T14:09:11.878Z,43.10
2022-09-06T14:11:39.270Z,43.26
2022-09-06T14:14:07.787Z,43.35
2022-09-06T14:16:35.286Z,43.42
2022-09-06T14:19:03.427Z,43.62
2022-09-06T14:21:30.916Z,43.69
2022-09-06T14:24:03.349Z,43.73
2022-09-06T14:26:32.740Z,43.92
2022-09-06T14:29:00.097Z,44.02
2022-09-06T14:31:28.512Z,44.09
2022-09-06T14:33:56.986Z,44.12
2022-09-06T14:36:26.758Z,44.24
2022-09-06T14:38:54.014Z,44.46
2022-09-06T14:41:21.285Z,44.52
2022-09-06T14:43:51.218Z,44.66
2022-09-06T14:46:19.296Z,44.93
2022-09-06T14:48:46.835Z,45.09
2022-09-06T14:51:23.285Z,45.35
2022-09-06T14:53:52.879Z,45.43
2022-09-06T14:56:20.399Z,45.64
2022-09-06T14:58:47.889Z,45.79
2022-09-06T15:01:21.104Z,45.77
2022-09-06T15:03:51.880Z,46.03
2022-09-06T15:06:23.219Z,46.12
2022-09-06T15:08:50.603Z,46.38
2022-09-06T15:11:37.354Z,46.54
2022-09-06T15:14:07.828Z,46.72
2022-09-06T15:16:36.043Z,46.83
2022-09-06T15:19:03.737Z,47.11
2022-09-06T15:21:31.701Z,47.09
2022-09-06T15:24:00.003Z,46.94
2022-09-06T15:26:26.947Z,47.31
2022-09-06T15:28:54.581Z,47.33
2022-09-06T15:31:21.817Z,47.41
2022-09-06T15:33:51.109Z,47.57
2022-09-06T15:36:18.810Z,47.95
2022-09-06T15:38:48.215Z,48.09
2022-09-06T15:41:19.384Z,48.19
2022-09-06T15:43:48.696Z,48.40
2022-09-06T15:46:17.999Z,48.48
2022-09-06T15:48:47.233Z,48.95
2022-09-06T15:51:16.782Z,49.08
2022-09-06T15:53:44.379Z,49.27
2022-09-06T15:56:14.610Z,49.21
2022-09-06T15:58:41.951Z,49.70
2022-09-06T16:01:14.792Z,49.77
2022-09-06T16:03:43.944Z,50.11
2022-09-06T16:06:31.670Z,50.16
2022-09-06T16:09:01.428Z,50.27
2022-09-06T16:11:29.493Z,50.42
2022-09-06T16:13:56.702Z,50.77
2022-09-06T16:16:24.695Z,51.09
2022-09-06T16:18:54.803Z,50.97
2022-09-06T16:21:24.840Z,51.20
2022-09-06T16:23:54.338Z,51.46
2022-09-06T16:26:23.537Z,51.60
2022-09-06T16:28:51.853Z,51.97
2022-09-06T16:31:19.737Z,52.01
2022-09-06T16:33:48.822Z,52.22
2022-09-06T16:36:16.940Z,52.12
2022-09-06T16:38:44.123Z,52.50
2022-09-06T16:41:36.020Z,52.99
2022-09-06T16:44:03.539Z,53.08
2022-09-06T16:46:31.216Z,53.27
2022-09-06T16:49:01.371Z,53.17
2022-09-06T16:51:31.380Z,53.42
2022-09-06T16:53:59.557Z,53.65
2022-09-06T16:56:28.841Z,53.96
2022-09-06T16:58:58.796Z,53.84
2022-09-06T17:01:27.695Z,53.93
2022-09-06T17:03:55.109Z,54.54
2022-09-06T17:06:23.104Z,54.50
2022-09-06T17:08:51.030Z,54.63
2022-09-06T17:11:20.565Z,54.88
2022-09-06T17:13:49.300Z,54.94
2022-09-06T17:16:34.631Z,55.15
2022-09-06T17:19:02.003Z,55.50
2022-09-06T17:21:29.728Z,55.51
2022-09-06T17:23:58.704Z,55.79
2022-09-06T17:26:25.785Z,55.97
2022-09-06T17:28:52.710Z,56.08
2022-09-06T17:31:24.982Z,56.39
2022-09-06T17:33:52.777Z,56.41
2022-09-06T17:36:23.610Z,56.52
2022-09-06T17:38:53.742Z,56.75
2022-09-06T17:41:24.336Z,56.92
2022-09-06T17:43:54.127Z,57.16
2022-09-06T17:46:26.402Z,57.12
2022-09-06T17:48:56.143Z,57.57
2022-09-06T17:51:24.373Z,57.48
2022-09-06T17:53:52.255Z,57.68
2022-09-06T17:56:20.370Z,57.83
2022-09-06T17:58:57.674Z,58.02
2022-09-06T18:01:26.219Z,58.07
2022-09-06T18:03:53.284Z,58.39
2022-09-06T18:06:22.941Z,58.30
2022-09-06T18:08:52.124Z,58.91
2022-09-06T18:11:24.886Z,58.89
2022-09-06T18:14:24.895Z,58.96
2022-09-06T18:16:52.255Z,59.35
2022-09-06T18:19:19.620Z,59.39
2022-09-06T18:21:47.464Z,59.84
2022-09-06T18:24:14.557Z,59.96
2022-09-06T18:26:42.245Z,60.19
2022-09-06T18:29:13.241Z,60.11
2022-09-06T18:31:41.503Z,60.65
2022-09-06T18:34:09.308Z,60.55
2022-09-06T18:36:37.904Z,60.97
2022-09-06T18:39:05.763Z,61.13
2022-09-06T18:41:52.255Z,60.80
2022-09-06T18:44:19.568Z,61.08
2022-09-06T18:46:46.771Z,61.23
2022-09-06T18:49:15.251Z,61.38
2022-09-06T18:51:42.775Z,61.59
2022-09-06T18:54:11.309Z,62.09
2022-09-06T18:56:38.785Z,62.13
2022-09-06T18:59:06.141Z,62.20
2022-09-06T19:01:35.161Z,62.61
2022-09-06T19:04:03.114Z,62.21
2022-09-06T19:06:31.795Z,62.44
2022-09-06T19:09:00.621Z,62.47
2022-09-06T19:11:28.338Z,63.03
2022-09-06T19:13:56.414Z,62.88
2022-09-06T19:16:24.525Z,63.23
2022-09-06T19:18:55.165Z,63.18
2022-09-06T19:21:24.895Z,63.65
2022-09-06T19:24:00.468Z,63.48
2022-09-06T19:26:31.345Z,63.52
2022-09-06T19:29:00.157Z,63.90
2022-09-06T19:31:30.180Z,64.16
2022-09-06T19:33:57.699Z,64.24
2022-09-06T19:36:26.487Z,64.31
2022-09-06T19:39:03.951Z,64.48
2022-09-06T19:41:33.780Z,64.70
2022-09-06T19:44:01.855Z,64.55
2022-09-06T19:46:29.270Z,64.71
2022-09-06T19:48:56.849Z,65.26
2022-09-06T19:51:24.442Z,65.35
2022-09-06T19:53:54.294Z,65.20
2022-09-06T19:56:32.101Z,65.06
2022-09-06T19:59:01.590Z,65.41
2022-09-06T20:01:31.692Z,65.72
2022-09-06T20:04:00.373Z,65.97
2022-09-06T20:06:27.764Z,65.84
2022-09-06T20:08:56.582Z,66.02
2022-09-06T20:11:27.176Z,66.16
2022-09-06T20:13:54.283Z,65.92
2022-09-06T20:16:21.801Z,66.39
2022-09-06T20:18:49.499Z,66.21
2022-09-06T20:21:18.667Z,66.67
2022-09-06T20:23:50.544Z,67.10
2022-09-06T20:26:18.248Z,66.65
2022-09-06T20:28:45.668Z,66.77
2022-09-06T20:31:17.420Z,66.90
2022-09-06T20:33:49.526Z,67.15
2022-09-06T20:36:18.204Z,67.28
2022-09-06T20:38:46.565Z,67.31
2022-09-06T20:41:15.780Z,67.71
2022-09-06T20:43:42.937Z,67.40
2022-09-06T20:46:14.779Z,67.90
2022-09-06T20:48:44.660Z,67.64
2022-09-06T20:51:18.829Z,68.09
2022-09-06T20:53:48.194Z,67.97
2022-09-06T20:56:17.386Z,68.26
2022-09-06T20:59:05.178Z,68.31
2022-09-06T21:01:35.250Z,68.36
2022-09-06T21:04:04.250Z,68.46
2022-09-06T21:06:34.486Z,68.50
2022-09-06T21:09:03.110Z,68.75
2022-09-06T21:11:30.236Z,68.58
2022-09-06T21:13:57.766Z,68.86
2022-09-06T21:16:27.714Z,69.06
2022-09-06T21:18:57.534Z,69.30
2022-09-06T21:21:25.603Z,69.14
2022-09-06T21:23:53.981Z,69.67
2022-09-06T21:26:22.409Z,69.51
2022-09-06T21:28:49.876Z,69.62
2022-09-06T21:31:22.871Z,69.52
2022-09-06T21:33:52.702Z,69.84
2022-09-06T21:36:21.819Z,69.68
2022-09-06T21:38:55.549Z,69.84
2022-09-06T21:41:23.257Z,70.00
2022-09-06T21:43:54.324Z,69.97
2022-09-06T21:46:23.082Z,70.33
2022-09-06T21:48:52.089Z,70.03
2022-09-06T21:51:21.461Z,70.41
2022-09-06T21:53:50.030Z,70.35
2022-09-06T21:56:19.738Z,70.84
2022-09-06T21:58:51.095Z,70.70
2022-09-06T22:01:19.008Z,70.59
2022-09-06T22:03:46.437Z,70.85
2022-09-06T22:06:24.951Z,70.66
2022-09-06T22:08:52.795Z,70.71
2022-09-06T22:11:24.690Z,70.93
2022-09-06T22:13:51.811Z,71.13
2022-09-06T22:16:21.982Z,71.29
2022-09-06T22:18:49.917Z,71.13
2022-09-06T22:21:20.131Z,71.37
2022-09-06T22:23:55.785Z,71.47
2022-09-06T22:26:23.895Z,71.57
2022-09-06T22:28:58.731Z,71.78
2022-09-06T22:31:27.837Z,71.88
2022-09-06T22:33:55.431Z,71.66
2022-09-06T22:36:24.120Z,72.26
2022-09-06T22:38:56.377Z,71.92
2022-09-06T22:41:28.828Z,72.00
2022-09-06T22:43:56.498Z,72.38
2022-09-06T22:46:24.010Z,72.20
2022-09-06T22:48:51.052Z,72.58
2022-09-06T22:51:18.057Z,72.33
2022-09-06T22:53:45.093Z,72.50
2022-09-06T22:56:12.114Z,72.67
2022-09-06T22:58:39.295Z,72.76
2022-09-06T23:01:08.924Z,72.95
2022-09-06T23:03:36.201Z,72.55
2022-09-06T23:06:03.973Z,72.59
2022-09-06T23:08:31.694Z,72.86
2022-09-06T23:11:04.711Z,73.06
2022-09-06T23:13:31.756Z,72.92
2022-09-06T23:16:05.954Z,73.01
2022-09-06T23:18:33.216Z,73.38
2022-09-06T23:21:05.226Z,72.89
2022-09-06T23:23:32.267Z,73.28
2022-09-06T23:26:04.299Z,73.21
2022-09-06T23:28:31.499Z,73.33
2022-09-06T23:31:01.998Z,73.09
2022-09-06T23:33:29.335Z,73.55
2022-09-06T23:35:56.650Z,73.22
2022-09-06T23:38:23.600Z,73.66
2022-09-06T23:40:50.587Z,73.78
2022-09-06T23:43:17.512Z,73.86
2022-09-06T23:45:44.517Z,73.80
2022-09-06T23:48:11.454Z,73.63
2022-09-06T23:50:38.705Z,73.57
2022-09-06T23:53:05.700Z,73.71
2022-09-06T23:55:32.608Z,74.07
2022-09-06T23:57:59.605Z,74.14
